createdAt,value
2022-08-21T00:00:02.791Z,29.41
2022-08-21T00:01:07.477Z,29.38
2022-08-21T00:02:20.931Z,29.36
2022-08-21T00:03:22.561Z,29.39
2022-08-21T00:04:29.298Z,29.38
2022-08-21T00:05:34.018Z,29.38
2022-08-21T00:06:36.366Z,29.36
2022-08-21T00:07:38.196Z,29.36
2022-08-21T00:08:39.823Z,29.38
2022-08-21T00:09:41.471Z,29.42
2022-08-21T00:10:44.545Z,29.45
2022-08-21T00:11:46.291Z,29.45
2022-08-21T00:12:49.460Z,29.43
2022-08-21T00:13:51.044Z,29.43
2022-08-21T00:14:53.206Z,29.44
2022-08-21T00:16:00.350Z,29.45
2022-08-21T00:17:02.310Z,29.43
2022-08-21T00:18:07.006Z,29.44
2022-08-21T00:19:09.663Z,29.46
2022-08-21T00:20:13.806Z,29.47
2022-08-21T00:21:16.909Z,29.49
2022-08-21T00:22:18.614Z,29.49
2022-08-21T00:23:20.479Z,29.51
2022-08-21T00:24:23.594Z,29.52
2022-08-21T00:25:26.301Z,29.52
2022-08-21T00:26:28.137Z,29.54
2022-08-21T00:27:29.789Z,29.55
2022-08-21T00:28:31.561Z,29.55
2022-08-21T00:29:33.194Z,29.56
2022-08-21T00:30:35.788Z,29.58
2022-08-21T00:31:37.943Z,29.61
2022-08-21T00:32:40.508Z,29.60
2022-08-21T00:33:42.836Z,29.61
2022-08-21T00:34:44.422Z,29.60
2022-08-21T00:35:46.107Z,29.60
2022-08-21T00:36:47.875Z,29.60
2022-08-21T00:37:50.056Z,29.61
2022-08-21T00:38:51.644Z,29.60
2022-08-21T00:39:54.277Z,29.62
2022-08-21T00:41:00.201Z,29.59
2022-08-21T00:42:04.433Z,29.61
2022-08-21T00:43:08.933Z,29.56
2022-08-21T00:44:15.834Z,29.56
2022-08-21T00:45:17.827Z,29.57
2022-08-21T00:46:19.570Z,29.56
2022-08-21T00:47:21.250Z,29.53
2022-08-21T00:48:24.249Z,29.52
2022-08-21T00:49:25.860Z,29.54
2022-08-21T00:50:32.453Z,29.53
2022-08-21T00:51:48.239Z,29.51
2022-08-21T00:52:52.901Z,29.54
2022-08-21T00:54:02.055Z,29.48
2022-08-21T00:55:07.852Z,29.50
2022-08-21T00:56:12.463Z,29.51
2022-08-21T00:57:23.333Z,29.47
2022-08-21T00:58:30.221Z,29.52
2022-08-21T00:59:35.698Z,29.51
2022-08-21T01:00:40.640Z,29.54
2022-08-21T01:01:42.265Z,29.54
2022-08-21T01:02:44.660Z,29.54
2022-08-21T01:03:47.279Z,29.54
2022-08-21T01:04:49.256Z,29.55
2022-08-21T01:05:51.689Z,29.54
2022-08-21T01:06:53.701Z,29.52
2022-08-21T01:07:58.089Z,29.53
2022-08-21T01:08:59.835Z,29.55
2022-08-21T01:10:02.104Z,29.56
2022-08-21T01:11:04.923Z,29.54
2022-08-21T01:12:07.358Z,29.54
2022-08-21T01:13:12.656Z,29.51
2022-08-21T01:14:15.440Z,29.51
2022-08-21T01:15:18.058Z,29.48
2022-08-21T01:16:22.485Z,29.48
2022-08-21T01:17:24.349Z,29.48
2022-08-21T01:18:27.438Z,29.47
2022-08-21T01:19:29.313Z,29.46
2022-08-21T01:20:32.860Z,29.47
2022-08-21T01:21:34.806Z,29.44
2022-08-21T01:22:36.797Z,29.41
2022-08-21T01:23:41.583Z,29.39
2022-08-21T01:24:43.361Z,29.38
2022-08-21T01:25:44.947Z,29.37
2022-08-21T01:26:47.062Z,29.38
2022-08-21T01:27:49.284Z,29.39
2022-08-21T01:28:56.680Z,29.37
2022-08-21T01:30:16.963Z,29.36
2022-08-21T01:31:26.208Z,29.41
2022-08-21T01:32:28.366Z,29.40
2022-08-21T01:33:30.099Z,29.37
2022-08-21T01:34:33.148Z,29.37
2022-08-21T01:35:35.241Z,29.36
2022-08-21T01:36:36.893Z,29.37
2022-08-21T01:37:38.665Z,29.40
2022-08-21T01:38:40.437Z,29.39
2022-08-21T01:39:43.033Z,29.42
2022-08-21T01:40:45.229Z,29.41
2022-08-21T01:41:47.020Z,29.39
2022-08-21T01:42:49.567Z,29.39
2022-08-21T01:43:51.626Z,29.38
2022-08-21T01:44:54.757Z,29.36
2022-08-21T01:45:57.834Z,29.37
2022-08-21T01:47:02.142Z,29.38
2022-08-21T01:48:04.072Z,29.39
2022-08-21T01:49:06.501Z,29.41
2022-08-21T01:50:11.448Z,29.42
2022-08-21T01:51:13.090Z,29.43
2022-08-21T01:52:14.948Z,29.42
2022-08-21T01:53:16.991Z,29.41
2022-08-21T01:54:18.628Z,29.41
2022-08-21T01:55:22.554Z,29.39
2022-08-21T01:56:25.746Z,29.41
2022-08-21T01:57:27.534Z,29.42
2022-08-21T01:58:29.239Z,29.44
2022-08-21T01:59:31.011Z,29.40
2022-08-21T02:00:32.706Z,29.36
2022-08-21T02:01:34.468Z,29.32
2022-08-21T02:02:36.041Z,29.30
2022-08-21T02:03:38.682Z,29.26
2022-08-21T02:04:40.302Z,29.23
2022-08-21T02:05:42.422Z,29.23
2022-08-21T02:06:44.854Z,29.20
2022-08-21T02:07:50.268Z,29.20
2022-08-21T02:08:52.393Z,29.21
2022-08-21T02:09:54.020Z,29.18
2022-08-21T02:10:58.116Z,29.17
2022-08-21T02:12:00.410Z,29.16
2022-08-21T02:13:02.425Z,29.14
2022-08-21T02:14:04.035Z,29.12
2022-08-21T02:15:07.238Z,29.13
2022-08-21T02:16:09.411Z,29.13
2022-08-21T02:17:11.003Z,29.15
2022-08-21T02:18:12.945Z,29.14
2022-08-21T02:19:16.218Z,29.13
2022-08-21T02:20:24.816Z,29.10
2022-08-21T02:21:26.769Z,29.11
2022-08-21T02:22:28.556Z,29.10
2022-08-21T02:23:30.258Z,29.11
2022-08-21T02:24:32.503Z,29.08
2022-08-21T02:25:34.879Z,29.08
2022-08-21T02:26:36.506Z,29.07
2022-08-21T02:27:42.914Z,29.08
2022-08-21T02:28:45.005Z,29.09
2022-08-21T02:29:46.596Z,29.05
2022-08-21T02:30:48.787Z,29.05
2022-08-21T02:31:50.414Z,29.04
2022-08-21T02:32:52.244Z,29.02
2022-08-21T02:33:53.863Z,28.97
2022-08-21T02:34:56.191Z,28.95
2022-08-21T02:35:58.047Z,28.96
2022-08-21T02:37:00.224Z,28.98
2022-08-21T02:38:06.055Z,28.96
2022-08-21T02:39:07.613Z,29.00
2022-08-21T02:40:12.131Z,29.03
2022-08-21T02:41:19.691Z,28.97
2022-08-21T02:42:21.384Z,28.96
2022-08-21T02:43:25.117Z,28.92
2022-08-21T02:44:34.270Z,28.91
2022-08-21T02:45:37.434Z,28.87
2022-08-21T02:46:39.114Z,28.84
2022-08-21T02:47:41.234Z,28.84
2022-08-21T02:48:43.193Z,28.84
2022-08-21T02:49:44.891Z,28.83
2022-08-21T02:50:49.785Z,28.81
2022-08-21T02:51:52.051Z,28.85
2022-08-21T02:52:55.106Z,28.84
2022-08-21T02:53:56.992Z,28.85
2022-08-21T02:54:58.593Z,28.81
2022-08-21T02:56:02.355Z,28.73
2022-08-21T02:57:04.144Z,28.35
2022-08-21T02:58:08.573Z,28.22
2022-08-21T02:59:10.242Z,28.32
2022-08-21T03:00:13.732Z,28.43
2022-08-21T03:01:15.800Z,28.28
2022-08-21T03:02:17.437Z,28.30
2022-08-21T03:03:19.565Z,28.39
2022-08-21T03:04:21.154Z,28.47
2022-08-21T03:05:24.390Z,28.53
2022-08-21T03:06:26.125Z,28.62
2022-08-21T03:07:28.089Z,28.69
2022-08-21T03:08:29.687Z,28.75
2022-08-21T03:09:31.285Z,28.77
2022-08-21T03:10:33.008Z,28.79
2022-08-21T03:11:34.583Z,28.72
2022-08-21T03:12:36.910Z,28.67
2022-08-21T03:13:39.605Z,28.64
2022-08-21T03:14:42.557Z,28.41
2022-08-21T03:15:45.314Z,28.39
2022-08-21T03:16:47.113Z,28.44
2022-08-21T03:17:49.076Z,28.49
2022-08-21T03:18:50.774Z,28.53
2022-08-21T03:19:52.325Z,28.58
2022-08-21T03:20:54.510Z,28.65
2022-08-21T03:21:56.146Z,28.74
2022-08-21T03:22:57.954Z,28.80
2022-08-21T03:23:59.701Z,28.85
2022-08-21T03:25:06.734Z,28.90
2022-08-21T03:26:09.520Z,28.90
2022-08-21T03:27:11.251Z,28.90
2022-08-21T03:28:17.145Z,28.87
2022-08-21T03:29:18.790Z,28.87
2022-08-21T03:30:21.784Z,28.87
2022-08-21T03:31:23.517Z,28.77
2022-08-21T03:32:25.111Z,28.69
2022-08-21T03:33:26.720Z,28.64
2022-08-21T03:34:30.210Z,28.53
2022-08-21T03:35:31.799Z,28.37
2022-08-21T03:36:33.501Z,28.37
2022-08-21T03:37:35.185Z,28.37
2022-08-21T03:38:38.848Z,28.36
2022-08-21T03:39:40.682Z,28.36
2022-08-21T03:40:43.639Z,28.36
2022-08-21T03:41:45.370Z,28.32
2022-08-21T03:42:50.470Z,28.34
2022-08-21T03:43:52.080Z,28.11
2022-08-21T03:44:53.661Z,28.08
2022-08-21T03:45:55.509Z,28.16
2022-08-21T03:46:58.651Z,28.23
2022-08-21T03:48:04.056Z,28.28
2022-08-21T03:49:05.655Z,28.34
2022-08-21T03:50:08.823Z,28.28
2022-08-21T03:51:10.400Z,28.28
2022-08-21T03:52:12.016Z,28.23
2022-08-21T03:53:17.595Z,28.17
2022-08-21T03:54:19.951Z,28.22
2022-08-21T03:55:21.664Z,28.24
2022-08-21T03:56:23.262Z,28.28
2022-08-21T03:57:24.805Z,28.33
2022-08-21T03:58:29.432Z,28.36
2022-08-21T03:59:31.129Z,27.48
2022-08-21T04:00:33.053Z,26.46
2022-08-21T04:01:35.117Z,26.74
2022-08-21T04:02:36.881Z,26.99
2022-08-21T04:03:38.727Z,27.03
2022-08-21T04:04:40.290Z,25.62
2022-08-21T04:05:42.521Z,24.51
2022-08-21T04:06:44.683Z,23.21
2022-08-21T04:07:46.305Z,23.68
2022-08-21T04:08:47.915Z,23.94
2022-08-21T04:09:49.487Z,24.68
2022-08-21T04:10:54.723Z,24.76
2022-08-21T04:11:56.350Z,24.35
2022-08-21T04:12:58.857Z,24.82
2022-08-21T04:14:00.630Z,24.46
2022-08-21T04:15:03.010Z,24.53
2022-08-21T04:16:04.964Z,24.71
2022-08-21T04:17:08.037Z,24.91
2022-08-21T04:18:11.365Z,24.81
2022-08-21T04:19:14.423Z,24.81
2022-08-21T04:20:17.638Z,22.89
2022-08-21T04:21:19.229Z,23.40
2022-08-21T04:22:25.794Z,24.32
2022-08-21T04:23:27.766Z,24.67
2022-08-21T04:24:29.976Z,24.37
2022-08-21T04:25:31.980Z,24.11
2022-08-21T04:26:35.446Z,24.19
2022-08-21T04:27:37.043Z,24.29
2022-08-21T04:28:38.677Z,24.84
2022-08-21T04:29:40.341Z,24.97
2022-08-21T04:30:42.560Z,25.44
2022-08-21T04:31:44.684Z,25.87
2022-08-21T04:32:49.584Z,26.21
2022-08-21T04:33:51.920Z,26.46
2022-08-21T04:35:07.180Z,25.75
2022-08-21T04:36:09.335Z,26.06
2022-08-21T04:37:10.888Z,26.35
2022-08-21T04:38:12.744Z,26.61
2022-08-21T04:39:14.360Z,26.80
2022-08-21T04:40:19.881Z,26.85
2022-08-21T04:41:25.071Z,27.03
2022-08-21T04:42:30.309Z,26.97
2022-08-21T04:43:32.170Z,25.56
2022-08-21T04:44:34.072Z,24.34
2022-08-21T04:45:40.107Z,24.58
2022-08-21T04:46:41.730Z,24.72
2022-08-21T04:47:52.106Z,25.37
2022-08-21T04:48:54.012Z,25.85
2022-08-21T04:49:55.597Z,26.34
2022-08-21T04:51:13.043Z,26.89
2022-08-21T04:52:20.370Z,27.39
2022-08-21T04:53:27.521Z,26.59
2022-08-21T04:54:29.413Z,26.74
2022-08-21T04:55:31.604Z,26.88
2022-08-21T04:56:40.685Z,27.16
2022-08-21T04:57:49.216Z,27.50
2022-08-21T04:58:53.465Z,27.80
2022-08-21T04:59:55.221Z,27.20
2022-08-21T05:00:59.101Z,27.89
2022-08-21T05:02:02.957Z,28.41
2022-08-21T05:03:07.873Z,28.89
2022-08-21T05:04:13.831Z,29.18
2022-08-21T05:05:17.066Z,29.31
2022-08-21T05:06:18.962Z,29.43
2022-08-21T05:07:42.702Z,29.70
2022-08-21T05:08:48.184Z,30.11
2022-08-21T05:09:50.432Z,30.42
2022-08-21T05:10:55.889Z,30.69
2022-08-21T05:12:02.293Z,30.99
2022-08-21T05:13:05.858Z,31.29
2022-08-21T05:14:07.531Z,31.50
2022-08-21T05:15:12.790Z,31.59
2022-08-21T05:16:14.904Z,31.57
2022-08-21T05:17:36.581Z,31.47
2022-08-21T05:18:38.182Z,31.30
2022-08-21T05:19:39.892Z,31.13
2022-08-21T05:20:42.102Z,31.00
2022-08-21T05:21:45.945Z,30.85
2022-08-21T05:22:47.685Z,30.67
2022-08-21T05:23:49.306Z,30.55
2022-08-21T05:24:51.576Z,30.38
2022-08-21T05:25:54.484Z,30.24
2022-08-21T05:26:56.156Z,30.16
2022-08-21T05:27:58.194Z,30.04
2022-08-21T05:29:02.467Z,29.96
2022-08-21T05:30:04.422Z,29.90
2022-08-21T05:31:06.187Z,29.86
2022-08-21T05:32:12.900Z,29.81
2022-08-21T05:33:14.749Z,29.80
2022-08-21T05:34:20.166Z,29.73
2022-08-21T05:35:21.901Z,29.74
2022-08-21T05:36:24.002Z,29.81
2022-08-21T05:37:25.603Z,29.88
2022-08-21T05:38:29.321Z,29.97
2022-08-21T05:40:20.656Z,30.13
2022-08-21T05:40:53.153Z,30.29
2022-08-21T05:41:54.763Z,30.32
2022-08-21T05:42:57.289Z,30.29
2022-08-21T05:43:59.047Z,30.28
2022-08-21T05:45:00.754Z,30.24
2022-08-21T05:46:02.760Z,30.17
2022-08-21T05:47:09.451Z,30.10
2022-08-21T05:48:18.485Z,30.02
2022-08-21T05:49:20.088Z,30.01
2022-08-21T05:50:22.405Z,29.97
2022-08-21T05:51:24.839Z,29.91
2022-08-21T05:52:26.684Z,29.86
2022-08-21T05:53:28.494Z,29.80
2022-08-21T05:54:31.063Z,29.77
2022-08-21T05:55:34.051Z,29.73
2022-08-21T05:56:35.911Z,29.72
2022-08-21T05:57:37.506Z,29.69
2022-08-21T05:58:39.546Z,29.70
2022-08-21T05:59:41.277Z,29.67
2022-08-21T06:00:44.176Z,29.68
2022-08-21T06:01:46.344Z,29.68
2022-08-21T06:02:47.989Z,29.68
2022-08-21T06:03:49.598Z,29.69
2022-08-21T06:04:51.173Z,29.66
2022-08-21T06:05:53.952Z,29.66
2022-08-21T06:06:55.597Z,29.69
2022-08-21T06:07:57.172Z,29.76
2022-08-21T06:08:58.779Z,29.86
2022-08-21T06:10:00.761Z,29.96
2022-08-21T06:11:05.012Z,30.08
2022-08-21T06:12:09.559Z,30.15
2022-08-21T06:13:11.555Z,30.23
2022-08-21T06:14:15.936Z,30.27
2022-08-21T06:15:17.502Z,30.30
2022-08-21T06:16:19.225Z,30.31
2022-08-21T06:17:20.882Z,30.31
2022-08-21T06:18:22.473Z,30.28
2022-08-21T06:19:24.040Z,30.29
2022-08-21T06:20:25.659Z,30.26
2022-08-21T06:21:27.252Z,30.25
2022-08-21T06:22:29.867Z,30.25
2022-08-21T06:23:33.210Z,30.15
2022-08-21T06:24:35.529Z,30.14
2022-08-21T06:25:37.104Z,30.15
2022-08-21T06:26:39.116Z,30.11
2022-08-21T06:27:40.762Z,30.12
2022-08-21T06:28:43.561Z,30.08
2022-08-21T06:29:46.141Z,30.07
2022-08-21T06:30:47.751Z,30.06
2022-08-21T06:31:50.907Z,30.04
2022-08-21T06:32:52.510Z,30.06
2022-08-21T06:33:54.268Z,30.09
2022-08-21T06:34:55.865Z,30.08
2022-08-21T06:35:57.406Z,30.11
2022-08-21T06:36:59.096Z,30.15
2022-08-21T06:38:00.755Z,30.14
2022-08-21T06:39:02.747Z,30.16
2022-08-21T06:40:18.575Z,30.20
2022-08-21T06:41:23.964Z,30.17
2022-08-21T06:42:27.984Z,30.19
2022-08-21T06:43:39.192Z,30.22
2022-08-21T06:44:41.602Z,30.22
2022-08-21T06:45:43.964Z,30.20
2022-08-21T06:46:46.529Z,30.18
2022-08-21T06:47:49.901Z,30.16
2022-08-21T06:48:51.640Z,30.14
2022-08-21T06:49:53.378Z,30.16
2022-08-21T06:50:54.980Z,30.18
2022-08-21T06:51:56.555Z,30.22
2022-08-21T06:53:06.532Z,30.25
2022-08-21T06:54:08.139Z,30.29
2022-08-21T06:55:11.274Z,30.32
2022-08-21T06:56:13.886Z,30.32
2022-08-21T06:57:15.492Z,30.31
2022-08-21T06:58:18.158Z,30.28
2022-08-21T06:59:19.741Z,30.28
2022-08-21T07:00:21.658Z,30.29
2022-08-21T07:01:25.912Z,30.21
2022-08-21T07:02:28.421Z,30.19
2022-08-21T07:03:33.956Z,30.14
2022-08-21T07:04:35.688Z,30.13
2022-08-21T07:05:37.318Z,30.12
2022-08-21T07:06:38.855Z,30.10
2022-08-21T07:07:40.450Z,30.09
2022-08-21T07:08:42.150Z,30.09
2022-08-21T07:09:44.478Z,30.09
2022-08-21T07:10:47.350Z,30.12
2022-08-21T07:11:53.048Z,30.20
2022-08-21T07:13:00.777Z,30.23
2022-08-21T07:14:03.164Z,30.24
2022-08-21T07:15:05.300Z,30.20
2022-08-21T07:16:07.256Z,30.21
2022-08-21T07:17:08.851Z,30.25
2022-08-21T07:18:10.406Z,30.29
2022-08-21T07:19:12.016Z,30.32
2022-08-21T07:20:14.046Z,30.37
2022-08-21T07:21:17.051Z,30.39
2022-08-21T07:22:21.424Z,30.40
2022-08-21T07:23:31.511Z,30.39
2022-08-21T07:24:33.106Z,30.45
2022-08-21T07:25:34.815Z,30.43
2022-08-21T07:26:36.853Z,30.46
2022-08-21T07:27:38.520Z,30.46
2022-08-21T07:28:40.180Z,30.48
2022-08-21T07:29:41.769Z,30.46
2022-08-21T07:30:43.761Z,30.46
2022-08-21T07:31:45.606Z,30.48
2022-08-21T07:32:50.133Z,30.48
2022-08-21T07:33:52.249Z,30.50
2022-08-21T07:34:53.928Z,30.51
2022-08-21T07:35:56.040Z,30.57
2022-08-21T07:36:58.402Z,30.58
2022-08-21T07:38:00.415Z,30.60
2022-08-21T07:39:02.014Z,30.66
2022-08-21T07:40:04.398Z,30.67
2022-08-21T07:41:36.372Z,30.69
2022-08-21T07:42:43.169Z,30.78
2022-08-21T07:43:46.265Z,30.81
2022-08-21T07:44:47.998Z,30.84
2022-08-21T07:45:52.651Z,30.89
2022-08-21T07:46:54.202Z,30.92
2022-08-21T07:47:57.689Z,30.92
2022-08-21T07:48:59.366Z,30.96
2022-08-21T07:50:00.965Z,30.99
2022-08-21T07:51:07.880Z,31.00
2022-08-21T07:52:09.477Z,30.87
2022-08-21T07:53:11.231Z,30.91
2022-08-21T07:54:17.135Z,30.99
2022-08-21T07:55:21.884Z,31.00
2022-08-21T07:56:23.702Z,31.06
2022-08-21T07:57:25.494Z,31.12
2022-08-21T07:58:27.107Z,31.17
2022-08-21T07:59:28.923Z,31.16
2022-08-21T08:00:31.814Z,31.16
2022-08-21T08:01:33.773Z,31.21
2022-08-21T08:02:35.774Z,31.26
2022-08-21T08:03:37.911Z,31.27
2022-08-21T08:04:50.992Z,31.30
2022-08-21T08:05:52.853Z,31.30
2022-08-21T08:06:54.418Z,31.31
2022-08-21T08:07:56.902Z,31.30
2022-08-21T08:08:58.508Z,31.32
2022-08-21T08:10:00.074Z,31.29
2022-08-21T08:11:02.418Z,31.29
2022-08-21T08:12:05.095Z,31.25
2022-08-21T08:13:06.725Z,31.26
2022-08-21T08:14:12.312Z,31.29
2022-08-21T08:15:20.816Z,31.28
2022-08-21T08:16:22.426Z,31.31
2022-08-21T08:17:24.644Z,31.36
2022-08-21T08:18:26.503Z,31.39
2022-08-21T08:19:28.094Z,31.47
2022-08-21T08:20:30.413Z,31.52
2022-08-21T08:21:33.491Z,31.55
2022-08-21T08:22:38.435Z,31.49
2022-08-21T08:23:40.226Z,31.16
2022-08-21T08:24:41.879Z,31.18
2022-08-21T08:25:43.468Z,31.26
2022-08-21T08:26:45.031Z,31.22
2022-08-21T08:27:47.450Z,31.19
2022-08-21T08:28:49.056Z,31.26
2022-08-21T08:29:50.956Z,31.37
2022-08-21T08:30:53.364Z,31.46
2022-08-21T08:31:55.571Z,31.57
2022-08-21T08:32:58.329Z,31.65
2022-08-21T08:34:00.081Z,31.74
2022-08-21T08:35:01.936Z,31.77
2022-08-21T08:36:08.068Z,31.80
2022-08-21T08:37:11.171Z,31.83
2022-08-21T08:38:13.248Z,31.85
2022-08-21T08:39:26.538Z,31.62
2022-08-21T08:40:47.008Z,31.54
2022-08-21T08:41:52.044Z,31.56
2022-08-21T08:43:01.263Z,31.60
2022-08-21T08:44:08.130Z,31.61
2022-08-21T08:45:14.090Z,31.64
2022-08-21T08:46:19.960Z,31.68
2022-08-21T08:47:22.066Z,31.72
2022-08-21T08:48:50.615Z,31.71
2022-08-21T08:50:22.358Z,31.75
2022-08-21T08:51:40.048Z,31.15
2022-08-21T08:52:47.341Z,30.90
2022-08-21T08:54:12.542Z,31.15
2022-08-21T08:55:20.865Z,31.37
2022-08-21T08:56:30.838Z,31.52
2022-08-21T08:57:33.796Z,31.38
2022-08-21T08:58:40.664Z,31.48
2022-08-21T08:59:46.718Z,31.58
2022-08-21T09:00:50.791Z,31.62
2022-08-21T09:01:52.509Z,31.40
2022-08-21T09:02:58.556Z,31.16
2022-08-21T09:04:00.408Z,31.31
2022-08-21T09:05:02.257Z,31.40
2022-08-21T09:06:22.753Z,31.09
2022-08-21T09:07:33.043Z,30.78
2022-08-21T09:09:04.241Z,30.90
2022-08-21T09:10:27.370Z,30.75
2022-08-21T09:11:50.913Z,30.98
2022-08-21T09:13:01.318Z,30.88
2022-08-21T09:14:27.706Z,31.06
2022-08-21T09:15:44.055Z,31.30
2022-08-21T09:17:12.271Z,31.46
2022-08-21T09:18:52.498Z,31.47
2022-08-21T09:20:09.310Z,31.18
2022-08-21T09:21:21.870Z,30.82
2022-08-21T09:22:33.371Z,30.51
2022-08-21T09:23:48.120Z,30.69
2022-08-21T09:24:55.900Z,30.99
2022-08-21T09:26:06.923Z,31.19
2022-08-21T09:27:17.297Z,31.43
2022-08-21T09:28:18.892Z,31.61
2022-08-21T09:29:25.121Z,31.64
2022-08-21T09:30:31.750Z,31.72
2022-08-21T09:31:35.644Z,31.76
2022-08-21T09:32:39.301Z,31.82
2022-08-21T09:33:40.868Z,31.85
2022-08-21T09:34:42.501Z,31.88
2022-08-21T09:35:55.604Z,31.86
2022-08-21T09:36:57.312Z,31.90
2022-08-21T09:38:03.038Z,31.94
2022-08-21T09:39:06.221Z,31.98
2022-08-21T09:40:23.182Z,32.00
2022-08-21T09:41:32.066Z,32.04
2022-08-21T09:42:33.656Z,31.88
2022-08-21T09:43:36.639Z,31.87
2022-08-21T09:44:44.233Z,31.46
2022-08-21T09:46:13.042Z,31.15
2022-08-21T09:47:14.693Z,31.38
2022-08-21T09:48:21.183Z,31.42
2022-08-21T09:49:35.384Z,31.56
2022-08-21T09:50:37.558Z,31.67
2022-08-21T09:51:39.486Z,31.69
2022-08-21T09:52:56.889Z,31.67
2022-08-21T09:54:07.409Z,31.72
2022-08-21T09:55:40.827Z,31.73
2022-08-21T09:57:36.180Z,31.39
2022-08-21T09:58:40.246Z,31.04
2022-08-21T09:59:43.398Z,31.04
2022-08-21T10:00:45.446Z,31.14
2022-08-21T10:01:50.515Z,31.06
2022-08-21T10:02:52.148Z,31.12
2022-08-21T10:04:08.892Z,30.57
2022-08-21T10:05:17.982Z,30.57
2022-08-21T10:06:26.300Z,30.84
2022-08-21T10:07:31.543Z,31.02
2022-08-21T10:08:35.780Z,31.10
2022-08-21T10:09:38.402Z,31.10
2022-08-21T10:10:40.010Z,30.82
2022-08-21T10:11:50.240Z,30.96
2022-08-21T10:13:28.626Z,30.59
2022-08-21T10:14:33.115Z,30.80
2022-08-21T10:15:59.897Z,31.09
2022-08-21T10:17:10.222Z,31.26
2022-08-21T10:18:29.092Z,31.35
2022-08-21T10:19:50.885Z,29.91
2022-08-21T10:21:15.423Z,30.43
2022-08-21T10:22:22.910Z,30.84
2022-08-21T10:24:00.003Z,30.65
2022-08-21T10:25:27.348Z,28.10
2022-08-21T10:26:47.222Z,26.66
2022-08-21T10:28:05.049Z,26.00
2022-08-21T10:29:20.118Z,26.03
2022-08-21T10:30:45.035Z,26.88
2022-08-21T10:32:26.250Z,27.93
2022-08-21T10:33:46.989Z,28.92
2022-08-21T10:35:01.088Z,28.79
2022-08-21T10:36:05.694Z,28.87
2022-08-21T10:38:02.384Z,26.68
2022-08-21T10:39:38.525Z,25.98
2022-08-21T10:41:11.661Z,27.33
2022-08-21T10:42:34.405Z,28.50
2022-08-21T10:44:13.752Z,29.16
2022-08-21T10:45:20.896Z,29.84
2022-08-21T10:46:43.508Z,29.98
2022-08-21T10:47:58.172Z,29.13
2022-08-21T10:49:29.821Z,28.89
2022-08-21T10:50:32.954Z,28.35
2022-08-21T10:51:50.932Z,26.74
2022-08-21T10:52:58.850Z,27.12
2022-08-21T10:54:26.336Z,27.81
2022-08-21T10:55:36.321Z,28.62
2022-08-21T10:56:42.403Z,28.58
2022-08-21T10:57:51.625Z,29.21
2022-08-21T10:59:23.891Z,29.79
2022-08-21T11:00:34.880Z,29.45
2022-08-21T11:01:55.114Z,29.85
2022-08-21T11:03:05.368Z,28.15
2022-08-21T11:04:22.993Z,27.14
2022-08-21T11:05:36.515Z,26.79
2022-08-21T11:06:44.244Z,27.82
2022-08-21T11:08:03.308Z,27.95
2022-08-21T11:09:13.361Z,28.72
2022-08-21T11:10:27.431Z,29.33
2022-08-21T11:11:37.150Z,29.68
2022-08-21T11:12:44.216Z,29.23
2022-08-21T11:13:55.109Z,29.24
2022-08-21T11:15:27.069Z,28.85
2022-08-21T11:16:41.060Z,29.29
2022-08-21T11:17:53.794Z,28.61
2022-08-21T11:19:03.808Z,29.32
2022-08-21T11:20:21.303Z,28.20
2022-08-21T11:21:30.790Z,27.94
2022-08-21T11:23:00.059Z,28.69
2022-08-21T11:24:05.769Z,28.06
2022-08-21T11:25:47.986Z,26.80
2022-08-21T11:26:58.705Z,27.84
2022-08-21T11:28:26.410Z,28.60
2022-08-21T11:29:35.709Z,28.43
2022-08-21T11:30:52.469Z,28.43
2022-08-21T11:32:18.852Z,28.01
2022-08-21T11:33:33.988Z,28.31
2022-08-21T11:34:44.195Z,27.91
2022-08-21T11:35:58.260Z,27.26
2022-08-21T11:37:16.041Z,27.93
2022-08-21T11:38:35.957Z,28.43
2022-08-21T11:39:54.034Z,29.07
2022-08-21T11:41:12.568Z,29.39
2022-08-21T11:42:23.379Z,29.01
2022-08-21T11:43:43.549Z,29.57
2022-08-21T11:44:51.395Z,29.80
2022-08-21T11:46:15.338Z,30.16
2022-08-21T11:47:28.441Z,30.53
2022-08-21T11:48:35.856Z,29.78
2022-08-21T11:49:57.883Z,30.14
2022-08-21T11:51:05.717Z,28.63
2022-08-21T11:52:34.763Z,28.44
2022-08-21T11:54:19.656Z,27.51
2022-08-21T11:55:26.101Z,27.09
2022-08-21T11:56:36.495Z,27.41
2022-08-21T11:58:06.678Z,27.04
2022-08-21T11:59:18.464Z,28.01
2022-08-21T12:00:36.886Z,28.84
2022-08-21T12:01:45.744Z,28.23
2022-08-21T12:02:52.971Z,26.90
2022-08-21T12:04:09.099Z,26.80
2022-08-21T12:05:23.372Z,27.24
2022-08-21T12:06:37.959Z,27.62
2022-08-21T12:07:42.546Z,27.90
2022-08-21T12:08:47.143Z,28.01
2022-08-21T12:09:58.086Z,27.91
2022-08-21T12:11:22.968Z,26.96
2022-08-21T12:12:34.968Z,26.83
2022-08-21T12:13:52.711Z,27.44
2022-08-21T12:15:06.082Z,28.42
2022-08-21T12:16:09.375Z,27.82
2022-08-21T12:17:20.890Z,27.53
2022-08-21T12:18:34.622Z,26.46
2022-08-21T12:19:36.965Z,26.84
2022-08-21T12:20:50.363Z,27.28
2022-08-21T12:22:10.117Z,26.32
2022-08-21T12:23:14.552Z,25.99
2022-08-21T12:24:19.074Z,26.33
2022-08-21T12:25:22.811Z,26.09
2022-08-21T12:26:28.674Z,26.25
2022-08-21T12:27:41.795Z,26.30
2022-08-21T12:28:43.565Z,26.90
2022-08-21T12:29:51.380Z,27.35
2022-08-21T12:30:57.463Z,27.53
2022-08-21T12:32:04.328Z,27.58
2022-08-21T12:33:31.819Z,27.16
2022-08-21T12:34:37.740Z,27.45
2022-08-21T12:35:44.492Z,27.89
2022-08-21T12:36:54.652Z,26.91
2022-08-21T12:38:03.413Z,26.79
2022-08-21T12:39:12.269Z,26.58
2022-08-21T12:40:22.873Z,26.67
2022-08-21T12:41:32.994Z,26.02
2022-08-21T12:42:53.019Z,25.66
2022-08-21T12:44:03.230Z,25.57
2022-08-21T12:45:32.111Z,25.99
2022-08-21T12:46:41.245Z,26.16
2022-08-21T12:48:15.589Z,26.65
2022-08-21T12:49:29.757Z,26.79
2022-08-21T12:50:37.724Z,27.17
2022-08-21T12:51:47.222Z,27.78
2022-08-21T12:53:20.501Z,28.45
2022-08-21T12:54:32.261Z,29.05
2022-08-21T12:55:34.876Z,29.41
2022-08-21T12:56:37.165Z,29.54
2022-08-21T12:57:41.493Z,28.92
2022-08-21T12:58:56.501Z,28.40
2022-08-21T13:00:07.633Z,28.17
2022-08-21T13:01:25.706Z,28.77
2022-08-21T13:02:34.019Z,29.09
2022-08-21T13:03:38.014Z,28.19
2022-08-21T13:04:42.289Z,27.79
2022-08-21T13:05:44.141Z,27.34
2022-08-21T13:06:48.537Z,26.54
2022-08-21T13:07:50.546Z,26.66
2022-08-21T13:09:10.837Z,26.84
2022-08-21T13:10:28.966Z,26.94
2022-08-21T13:11:33.775Z,27.38
2022-08-21T13:12:37.136Z,28.11
2022-08-21T13:13:46.775Z,28.64
2022-08-21T13:14:52.657Z,28.04
2022-08-21T13:16:06.733Z,28.19
2022-08-21T13:17:10.853Z,26.92
2022-08-21T13:18:23.512Z,26.03
2022-08-21T13:19:26.655Z,26.06
2022-08-21T13:20:33.402Z,26.09
2022-08-21T13:21:41.275Z,26.51
2022-08-21T13:22:44.658Z,26.70
2022-08-21T13:23:49.327Z,26.80
2022-08-21T13:24:51.353Z,27.22
2022-08-21T13:25:53.527Z,27.23
2022-08-21T13:26:55.891Z,26.62
2022-08-21T13:28:16.298Z,26.73
2022-08-21T13:29:22.836Z,26.75
2022-08-21T13:30:26.187Z,27.02
2022-08-21T13:31:31.773Z,27.36
2022-08-21T13:32:38.700Z,27.90
2022-08-21T13:33:42.169Z,27.94
2022-08-21T13:34:43.861Z,28.19
2022-08-21T13:35:52.440Z,27.95
2022-08-21T13:37:00.100Z,28.41
2022-08-21T13:38:03.173Z,28.21
2022-08-21T13:39:07.907Z,28.79
2022-08-21T13:40:19.001Z,28.72
2022-08-21T13:41:26.781Z,28.51
2022-08-21T13:42:28.355Z,28.43
2022-08-21T13:43:35.007Z,28.54
2022-08-21T13:44:42.428Z,29.09
2022-08-21T13:45:48.349Z,28.92
2022-08-21T13:46:51.600Z,29.02
2022-08-21T13:47:54.761Z,28.47
2022-08-21T13:48:57.477Z,28.88
2022-08-21T13:49:59.417Z,28.36
2022-08-21T13:51:02.007Z,28.28
2022-08-21T13:52:05.193Z,28.13
2022-08-21T13:53:19.987Z,27.05
2022-08-21T13:54:37.498Z,27.08
2022-08-21T13:55:42.748Z,27.24
2022-08-21T13:56:47.436Z,27.46
2022-08-21T13:58:00.157Z,27.60
2022-08-21T13:59:04.053Z,27.48
2022-08-21T14:00:27.418Z,26.90
2022-08-21T14:01:40.744Z,26.21
2022-08-21T14:02:46.218Z,25.50
2022-08-21T14:03:50.091Z,25.70
2022-08-21T14:04:57.625Z,25.85
2022-08-21T14:06:00.402Z,25.98
2022-08-21T14:07:03.775Z,25.55
2022-08-21T14:08:30.645Z,25.50
2022-08-21T14:09:35.994Z,25.68
2022-08-21T14:10:43.838Z,25.94
2022-08-21T14:11:45.552Z,26.63
2022-08-21T14:12:53.942Z,26.75
2022-08-21T14:13:56.507Z,26.79
2022-08-21T14:14:59.004Z,26.86
2022-08-21T14:16:03.628Z,26.35